Time;durP1;ratioP1;P1;durP2;ratioP2;P2;SDS_P1;SDS_P2;PMS_P1;PMS_P2;Temp;Humidity;BMP_temperature;BMP_pressure;BME280_temperature;BME280_humidity;BME280_pressure;Samples;Min_cycle;Max_cycle;Signal;HPM_P1;HPM_P2
2021/05/08 00:00:46;;;;;;;;;;;18.80;60.20;;;;;;5076033;28;1094;-69
2021/05/08 00:03:11;;;;;;;;;;;18.80;60.20;;;;;;5075898;28;1302;-69
2021/05/08 00:05:37;;;;;;;;;;;18.80;60.20;;;;;;5075888;28;1957;-68
2021/05/08 00:08:02;;;;;;;;;;;18.80;60.20;;;;;;5075911;28;1086;-68
2021/05/08 00:10:28;;;;;;;;;;;18.80;60.20;;;;;;5074587;28;1143;-68
2021/05/08 00:12:53;;;;;;;;;;;18.80;60.20;;;;;;5075924;28;1286;-67
2021/05/08 00:15:19;;;;;;;;;;;18.80;60.30;;;;;;5075538;28;1251;-68
2021/05/08 00:17:44;;;;;;;;;;;18.80;60.30;;;;;;5075571;28;1130;-69
2021/05/08 00:20:10;;;;;;;;;;;18.80;60.30;;;;;;5070549;28;1103;-69
2021/05/08 00:22:37;;;;;;;;;;;18.80;60.30;;;;;;5074513;28;1552;-69
2021/05/08 00:25:03;;;;;;;;;;;18.80;60.30;;;;;;5074414;28;1142;-69
2021/05/08 00:27:28;;;;;;;;;;;18.80;60.40;;;;;;5075619;28;1902;-69
2021/05/08 00:29:53;;;;;;;;;;;18.80;60.40;;;;;;5075826;28;1031;-69
2021/05/08 00:32:19;;;;;;;;;;;18.80;60.40;;;;;;5075461;28;1218;-69
2021/05/08 00:34:44;;;;;;;;;;;18.80;60.40;;;;;;5075515;28;1034;-69
2021/05/08 00:37:10;;;;;;;;;;;18.80;60.40;;;;;;5075201;28;1133;-69
2021/05/08 00:39:35;;;;;;;;;;;18.80;60.40;;;;;;5074261;28;1114;-69
2021/05/08 00:42:01;;;;;;;;;;;18.80;60.40;;;;;;5075739;28;1219;-69
2021/05/08 00:44:26;;;;;;;;;;;18.80;60.40;;;;;;5075482;28;1090;-69
2021/05/08 00:46:52;;;;;;;;;;;18.80;60.40;;;;;;5074811;28;2004;-69
2021/05/08 00:49:19;;;;;;;;;;;18.80;60.50;;;;;;5074013;28;1123;-69
2021/05/08 00:51:45;;;;;;;;;;;18.80;60.50;;;;;;5075451;28;1298;-69
2021/05/08 00:54:10;;;;;;;;;;;18.80;60.50;;;;;;5073898;28;1318;-70
2021/05/08 00:56:35;;;;;;;;;;;18.70;60.40;;;;;;5073781;28;1091;-69
2021/05/08 00:59:04;;;;;;;;;;;18.80;60.50;;;;;;5075122;28;1098;-69
2021/05/08 01:01:29;;;;;;;;;;;18.70;60.50;;;;;;5074934;28;1369;-69
2021/05/08 01:03:54;;;;;;;;;;;18.70;60.50;;;;;;5074991;28;1121;-69
2021/05/08 01:06:20;;;;;;;;;;;18.70;60.50;;;;;;5074698;28;1901;-69
2021/05/08 01:08:45;;;;;;;;;;;18.70;60.50;;;;;;5074841;28;1110;-69
2021/05/08 01:11:11;;;;;;;;;;;18.70;60.50;;;;;;5073558;28;1244;-69
2021/05/08 01:13:36;;;;;;;;;;;18.70;60.50;;;;;;5074177;28;1094;-70
2021/05/08 01:16:02;;;;;;;;;;;18.70;60.50;;;;;;5073123;28;1083;-69
2021/05/08 01:18:29;;;;;;;;;;;18.70;60.50;;;;;;5074638;28;1114;-68
2021/05/08 01:20:54;;;;;;;;;;;18.70;60.50;;;;;;5068348;28;1181;-69
2021/05/08 01:23:20;;;;;;;;;;;18.70;61.30;;;;;;5074556;28;1298;-69
2021/05/08 01:25:45;;;;;;;;;;;18.70;60.60;;;;;;5074203;28;1906;-69
2021/05/08 01:28:11;;;;;;;;;;;18.70;60.60;;;;;;5073416;28;1063;-69
2021/05/08 01:30:36;;;;;;;;;;;18.70;60.50;;;;;;5074365;28;1079;-69
2021/05/08 01:33:02;;;;;;;;;;;18.70;60.50;;;;;;5073137;28;1204;-68
2021/05/08 01:35:29;;;;;;;;;;;18.70;60.60;;;;;;5072941;28;1075;-68
2021/05/08 01:37:55;;;;;;;;;;;18.70;60.50;;;;;;5074315;28;1235;-68
2021/05/08 01:40:25;;;;;;;;;;;18.70;60.50;;;;;;5074309;28;1141;-68
2021/05/08 01:42:51;;;;;;;;;;;18.70;60.50;;;;;;5074235;28;1219;-68
2021/05/08 01:45:18;;;;;;;;;;;18.70;60.50;;;;;;5073780;28;1078;-69
2021/05/08 01:47:43;;;;;;;;;;;18.70;60.50;;;;;;5072847;28;1897;-69
2021/05/08 01:50:10;;;;;;;;;;;18.70;60.50;;;;;;5074122;28;1075;-69
2021/05/08 01:52:35;;;;;;;;;;;18.70;60.50;;;;;;5073911;28;1271;-69
2021/05/08 01:55:04;;;;;;;;;;;18.70;60.50;;;;;;5055867;28;1561;-69
2021/05/08 01:57:30;;;;;;;;;;;18.70;61.20;;;;;;5072518;28;1079;-69
2021/05/08 01:59:55;;;;;;;;;;;18.70;60.50;;;;;;5073892;28;1153;-68
2021/05/08 02:02:21;;;;;;;;;;;18.70;60.40;;;;;;5073872;28;1282;-69
2021/05/08 02:04:47;;;;;;;;;;;18.70;60.50;;;;;;5073912;28;1070;-69
2021/05/08 02:07:13;;;;;;;;;;;18.70;60.50;;;;;;5073332;28;1949;-68
2021/05/08 02:09:38;;;;;;;;;;;18.70;60.50;;;;;;5073761;28;1114;-68
2021/05/08 02:12:04;;;;;;;;;;;18.70;60.50;;;;;;5072439;28;1296;-67
2021/05/08 02:14:29;;;;;;;;;;;18.70;60.50;;;;;;5073349;28;1153;-67
2021/05/08 02:16:55;;;;;;;;;;;18.70;60.50;;;;;;5088957;28;1289;-67
2021/05/08 02:19:20;;;;;;;;;;;18.70;60.50;;;;;;5073611;28;1055;-67
2021/05/08 02:21:46;;;;;;;;;;;18.70;60.50;;;;;;5068256;28;1181;-67
2021/05/08 02:24:11;;;;;;;;;;;18.70;60.50;;;;;;5073504;28;1106;-68
2021/05/08 02:26:36;;;;;;;;;;;18.70;60.50;;;;;;5073128;28;2023;-69
2021/05/08 02:29:02;;;;;;;;;;;18.70;60.50;;;;;;5072221;28;1138;-69
2021/05/08 02:31:27;;;;;;;;;;;18.70;60.50;;;;;;5072038;28;1294;-68
2021/05/08 02:33:53;;;;;;;;;;;18.70;60.50;;;;;;5073632;28;1055;-69
2021/05/08 02:36:18;;;;;;;;;;;18.70;60.50;;;;;;5072872;28;1117;-68
2021/05/08 02:38:44;;;;;;;;;;;18.70;60.50;;;;;;5073128;28;1070;-68
2021/05/08 02:41:09;;;;;;;;;;;18.70;60.50;;;;;;5073042;28;1282;-69
2021/05/08 02:43:34;;;;;;;;;;;18.70;60.50;;;;;;5071781;28;1131;-70
2021/05/08 02:46:00;;;;;;;;;;;18.70;60.50;;;;;;5072678;28;1914;-70
2021/05/08 02:48:25;;;;;;;;;;;18.70;60.60;;;;;;5072071;28;1225;-69
2021/05/08 02:50:51;;;;;;;;;;;18.70;60.50;;;;;;5073035;28;1067;-70
2021/05/08 02:53:16;;;;;;;;;;;18.70;60.50;;;;;;5072912;28;1161;-69
2021/05/08 02:55:41;;;;;;;;;;;18.70;60.50;;;;;;5054661;28;1059;-69
2021/05/08 02:58:07;;;;;;;;;;;18.70;60.50;;;;;;5072788;28;1178;-70
2021/05/08 03:00:32;;;;;;;;;;;18.70;60.50;;;;;;5071765;28;1086;-69
2021/05/08 03:02:58;;;;;;;;;;;18.70;60.60;;;;;;5072857;28;1331;-69
2021/05/08 03:05:23;;;;;;;;;;;18.70;60.60;;;;;;5072601;28;1149;-69
2021/05/08 03:07:49;;;;;;;;;;;18.70;60.60;;;;;;5071954;28;1977;-69
2021/05/08 03:10:14;;;;;;;;;;;18.70;60.60;;;;;;5071515;28;1087;-69
2021/05/08 03:12:40;;;;;;;;;;;18.70;60.60;;;;;;5071211;28;1308;-68
2021/05/08 03:15:05;;;;;;;;;;;18.70;60.60;;;;;;5072968;28;1180;-68
2021/05/08 03:17:31;;;;;;;;;;;18.70;60.50;;;;;;5071595;28;964;-69
2021/05/08 03:19:56;;;;;;;;;;;18.70;60.60;;;;;;5067935;28;1125;-69
2021/05/08 03:22:21;;;;;;;;;;;18.70;60.60;;;;;;5072351;28;1310;-69
2021/05/08 03:24:47;;;;;;;;;;;18.70;60.60;;;;;;5071549;28;1153;-69
2021/05/08 03:27:12;;;;;;;;;;;18.70;60.60;;;;;;5072179;28;1903;-69
2021/05/08 03:29:38;;;;;;;;;;;18.70;60.60;;;;;;5072787;28;1099;-69
2021/05/08 03:32:03;;;;;;;;;;;18.70;60.60;;;;;;5072506;28;1308;-69
2021/05/08 03:34:29;;;;;;;;;;;18.70;60.60;;;;;;5072558;28;1215;-68
2021/05/08 03:36:54;;;;;;;;;;;18.70;60.60;;;;;;5072400;28;1185;-68
2021/05/08 03:39:20;;;;;;;;;;;18.70;60.60;;;;;;5072564;28;1066;-68
2021/05/08 03:41:45;;;;;;;;;;;18.70;60.60;;;;;;5072273;28;1274;-68
2021/05/08 03:44:11;;;;;;;;;;;18.70;60.60;;;;;;5072688;28;1161;-68
2021/05/08 03:46:36;;;;;;;;;;;18.70;60.50;;;;;;5072038;28;1894;-68
2021/05/08 03:49:02;;;;;;;;;;;18.70;60.50;;;;;;5072329;28;1161;-69
2021/05/08 03:51:27;;;;;;;;;;;18.70;60.50;;;;;;5072404;28;1358;-68
2021/05/08 03:53:53;;;;;;;;;;;18.70;60.50;;;;;;5072565;28;1129;-68
2021/05/08 03:56:18;;;;;;;;;;;18.70;60.40;;;;;;5070704;28;1119;-70
2021/05/08 03:58:43;;;;;;;;;;;18.70;60.40;;;;;;5072338;28;1050;-69
2021/05/08 04:01:09;;;;;;;;;;;18.70;60.30;;;;;;5072194;28;1209;-69
2021/05/08 04:03:34;;;;;;;;;;;18.80;60.30;;;;;;5071129;28;1194;-67
2021/05/08 04:06:00;;;;;;;;;;;18.80;60.30;;;;;;5071416;28;1957;-67
2021/05/08 04:08:25;;;;;;;;;;;18.80;60.30;;;;;;5072301;28;1130;-67
2021/05/08 04:10:51;;;;;;;;;;;18.80;60.30;;;;;;5072425;28;1091;-67
2021/05/08 04:13:16;;;;;;;;;;;18.80;60.20;;;;;;5071944;28;1294;-67
2021/05/08 04:15:42;;;;;;;;;;;18.80;60.20;;;;;;5070791;28;1217;-69
2021/05/08 04:18:07;;;;;;;;;;;18.80;60.20;;;;;;5072923;28;1055;-68
2021/05/08 04:20:33;;;;;;;;;;;18.80;60.10;;;;;;5071373;28;1074;-69
2021/05/08 04:22:58;;;;;;;;;;;18.80;60.10;;;;;;5066076;28;1197;-69
2021/05/08 04:25:23;;;;;;;;;;;18.80;60.10;;;;;;5075376;28;1039;-68
2021/05/08 04:27:49;;;;;;;;;;;18.80;60.10;;;;;;5075496;28;1964;-70
2021/05/08 04:30:14;;;;;;;;;;;18.80;60.00;;;;;;5075799;28;1118;-69
2021/05/08 04:32:40;;;;;;;;;;;18.80;60.10;;;;;;5075644;28;1660;-69
2021/05/08 04:35:06;;;;;;;;;;;18.80;60.00;;;;;;5075617;28;1193;-69
2021/05/08 04:37:31;;;;;;;;;;;18.80;60.00;;;;;;5074127;28;1075;-69
2021/05/08 04:39:56;;;;;;;;;;;18.80;60.00;;;;;;5075510;28;1106;-67
2021/05/08 04:42:22;;;;;;;;;;;18.80;60.00;;;;;;5073793;28;1228;-67
2021/05/08 04:44:47;;;;;;;;;;;18.80;60.00;;;;;;5075373;28;1166;-69
2021/05/08 04:47:13;;;;;;;;;;;18.80;60.00;;;;;;5075390;28;1965;-70
2021/05/08 04:49:39;;;;;;;;;;;18.90;60.00;;;;;;5075833;28;1135;-69
2021/05/08 04:52:05;;;;;;;;;;;18.90;60.00;;;;;;5073977;28;1395;-70
2021/05/08 04:54:30;;;;;;;;;;;18.90;60.00;;;;;;5067214;28;1927;-70
2021/05/08 04:56:56;;;;;;;;;;;18.90;60.00;;;;;;5067582;28;1846;-69
2021/05/08 04:59:21;;;;;;;;;;;18.90;60.00;;;;;;5066398;28;930;-69
2021/05/08 05:01:46;;;;;;;;;;;18.90;60.00;;;;;;5066944;28;1213;-70
2021/05/08 05:04:12;;;;;;;;;;;18.90;60.00;;;;;;5074936;28;1186;-69
2021/05/08 05:06:37;;;;;;;;;;;18.90;60.00;;;;;;5073351;28;1967;-67
2021/05/08 05:09:03;;;;;;;;;;;18.90;59.90;;;;;;5075050;28;1118;-68
2021/05/08 05:11:28;;;;;;;;;;;18.90;59.90;;;;;;5074293;28;1339;-67
2021/05/08 05:13:54;;;;;;;;;;;18.90;59.90;;;;;;5073664;28;1244;-68
2021/05/08 05:16:19;;;;;;;;;;;18.90;59.90;;;;;;5072226;28;1138;-68
2021/05/08 05:18:44;;;;;;;;;;;18.90;59.90;;;;;;5073565;28;1079;-69
2021/05/08 05:21:10;;;;;;;;;;;18.90;59.90;;;;;;5068571;28;1283;-69
2021/05/08 05:23:35;;;;;;;;;;;18.90;59.90;;;;;;5073503;28;1058;-69
2021/05/08 05:26:01;;;;;;;;;;;18.90;60.00;;;;;;5071938;28;1906;-68
2021/05/08 05:28:27;;;;;;;;;;;18.90;59.90;;;;;;5073406;28;1178;-68
2021/05/08 05:30:53;;;;;;;;;;;18.90;59.90;;;;;;5071508;28;1091;-68
2021/05/08 05:33:18;;;;;;;;;;;18.90;60.00;;;;;;5072064;28;1603;-69
2021/05/08 05:35:45;;;;;;;;;;;18.90;59.90;;;;;;5071914;28;1079;-69
2021/05/08 05:38:11;;;;;;;;;;;18.90;59.90;;;;;;5071973;28;1107;-69
2021/05/08 05:40:39;;;;;;;;;;;18.90;59.90;;;;;;5073163;28;1063;-68
2021/05/08 05:43:05;;;;;;;;;;;18.90;59.90;;;;;;5073207;28;1197;-68
2021/05/08 05:45:30;;;;;;;;;;;18.90;59.90;;;;;;5071756;28;1059;-68
2021/05/08 05:47:56;;;;;;;;;;;18.90;59.90;;;;;;5072035;28;1902;-69
2021/05/08 05:50:22;;;;;;;;;;;18.90;59.90;;;;;;5071924;28;1158;-68
2021/05/08 05:52:47;;;;;;;;;;;18.90;59.90;;;;;;5071887;28;1241;-69
2021/05/08 05:55:13;;;;;;;;;;;18.90;59.90;;;;;;5072590;28;1157;-71
2021/05/08 05:57:38;;;;;;;;;;;18.90;59.90;;;;;;5071841;28;1099;-70
2021/05/08 06:00:04;;;;;;;;;;;18.90;59.90;;;;;;5073194;28;1061;-67
2021/05/08 06:02:30;;;;;;;;;;;18.90;59.90;;;;;;5072763;28;1270;-68
2021/05/08 06:04:55;;;;;;;;;;;18.90;59.90;;;;;;5072939;28;1183;-67
2021/05/08 06:07:20;;;;;;;;;;;18.90;59.80;;;;;;5072539;28;1959;-67
2021/05/08 06:09:46;;;;;;;;;;;18.90;59.80;;;;;;5072570;28;1082;-68
2021/05/08 06:12:11;;;;;;;;;;;18.90;59.80;;;;;;5055251;28;508808;-67
2021/05/08 06:14:37;;;;;;;;;;;18.90;59.80;;;;;;5073666;28;1109;-68
2021/05/08 06:17:02;;;;;;;;;;;18.90;59.80;;;;;;5073158;28;1067;-68
2021/05/08 06:19:28;;;;;;;;;;;18.90;59.80;;;;;;5072622;28;1074;-68
2021/05/08 06:21:53;;;;;;;;;;;18.90;59.90;;;;;;5069184;28;1239;-68
2021/05/08 06:24:21;;;;;;;;;;;18.90;59.90;;;;;;5055518;28;1056;-68
2021/05/08 06:26:47;;;;;;;;;;;18.90;59.80;;;;;;5071719;28;1910;-68
2021/05/08 06:29:12;;;;;;;;;;;18.90;59.80;;;;;;5073475;28;1070;-69
2021/05/08 06:31:38;;;;;;;;;;;18.90;59.90;;;;;;5071846;28;1269;-69
2021/05/08 06:34:03;;;;;;;;;;;18.90;59.90;;;;;;5072030;28;1222;-70
2021/05/08 06:36:28;;;;;;;;;;;18.90;59.80;;;;;;5072810;28;1046;-69
2021/05/08 06:38:54;;;;;;;;;;;18.90;59.80;;;;;;5073003;28;1043;-68
2021/05/08 06:41:19;;;;;;;;;;;18.90;59.80;;;;;;5073341;28;1287;-68
2021/05/08 06:43:45;;;;;;;;;;;18.90;59.80;;;;;;5072139;28;1059;-67
2021/05/08 06:46:10;;;;;;;;;;;18.90;59.80;;;;;;5072712;28;1902;-68
2021/05/08 06:48:36;;;;;;;;;;;19.00;59.90;;;;;;5073237;28;1189;-67
2021/05/08 06:51:02;;;;;;;;;;;18.90;59.80;;;;;;5073081;28;1381;-67
2021/05/08 06:53:27;;;;;;;;;;;18.90;59.80;;;;;;5072665;28;1136;-68
2021/05/08 06:55:53;;;;;;;;;;;18.90;59.80;;;;;;5071541;28;1146;-70
2021/05/08 06:58:18;;;;;;;;;;;19.00;59.90;;;;;;5072897;28;1165;-71
2021/05/08 07:00:43;;;;;;;;;;;19.00;59.90;;;;;;5072911;28;1039;-70
2021/05/08 07:03:09;;;;;;;;;;;18.90;59.80;;;;;;5072747;28;1219;-69
2021/05/08 07:05:34;;;;;;;;;;;19.00;59.90;;;;;;5072590;28;1150;-69
2021/05/08 07:08:03;;;;;;;;;;;18.90;59.80;;;;;;5072532;28;1904;-69
2021/05/08 07:10:28;;;;;;;;;;;18.90;59.80;;;;;;5071742;28;1221;-69
2021/05/08 07:12:54;;;;;;;;;;;18.90;59.80;;;;;;5091587;22;1737;-64
2021/05/08 07:15:19;;;;;;;;;;;18.90;59.80;;;;;;5066128;28;1138;-64
2021/05/08 07:17:57;;;;;;;;;;;18.90;59.80;;;;;;5072719;28;1160;-64
2021/05/08 07:20:23;;;;;;;;;;;19.00;59.80;;;;;;5069971;28;1118;-64
2021/05/08 07:22:48;;;;;;;;;;;18.90;59.80;;;;;;5052376;28;1206;-65
2021/05/08 07:25:13;;;;;;;;;;;18.90;59.80;;;;;;5052347;28;1138;-65
2021/05/08 07:27:39;;;;;;;;;;;18.90;59.80;;;;;;5052444;28;1910;-65
2021/05/08 07:30:04;;;;;;;;;;;19.00;59.90;;;;;;5052538;28;1039;-65
2021/05/08 07:32:30;;;;;;;;;;;19.00;59.90;;;;;;5051205;28;1282;-65
2021/05/08 07:34:55;;;;;;;;;;;19.00;59.90;;;;;;5052671;28;1146;-65
2021/05/08 07:37:21;;;;;;;;;;;19.00;59.90;;;;;;5052023;28;1067;-65
2021/05/08 07:39:46;;;;;;;;;;;18.90;59.80;;;;;;5052518;28;1189;-63
2021/05/08 07:42:12;;;;;;;;;;;19.00;59.90;;;;;;5052452;28;1264;-64
2021/05/08 07:44:37;;;;;;;;;;;18.90;59.80;;;;;;5051241;28;1126;-64
2021/05/08 07:47:02;;;;;;;;;;;19.00;59.90;;;;;;5052045;28;1894;-65
2021/05/08 07:49:28;;;;;;;;;;;19.00;59.90;;;;;;5052071;28;1086;-65
2021/05/08 07:51:53;;;;;;;;;;;18.90;59.80;;;;;;5052273;28;1275;-65
2021/05/08 07:54:19;;;;;;;;;;;18.90;59.80;;;;;;5054964;28;1137;-64
2021/05/08 07:56:44;;;;;;;;;;;19.00;59.90;;;;;;5056022;28;1118;-66
2021/05/08 07:59:10;;;;;;;;;;;19.00;59.90;;;;;;5056007;28;1078;-65
2021/05/08 08:01:36;;;;;;;;;;;19.00;59.90;;;;;;5056348;28;1243;-65
2021/05/08 08:04:02;;;;;;;;;;;19.00;59.90;;;;;;5056223;28;1079;-64
2021/05/08 08:06:27;;;;;;;;;;;19.00;59.90;;;;;;5055651;28;1890;-64
2021/05/08 08:08:52;;;;;;;;;;;18.90;59.80;;;;;;5054646;28;1052;-64
2021/05/08 08:11:18;;;;;;;;;;;19.00;59.90;;;;;;5052426;28;1943;-65
2021/05/08 08:13:43;;;;;;;;;;;18.90;59.80;;;;;;5053572;28;1282;-65
2021/05/08 08:16:09;;;;;;;;;;;19.00;59.90;;;;;;5048104;28;1153;-66
2021/05/08 08:18:34;;;;;;;;;;;19.00;59.90;;;;;;5050978;28;1056;-66
2021/05/08 08:21:00;;;;;;;;;;;19.00;59.80;;;;;;5050571;28;1180;-65
2021/05/08 08:23:25;;;;;;;;;;;19.00;59.90;;;;;;5055524;28;1266;-65
2021/05/08 08:25:50;;;;;;;;;;;19.00;59.90;;;;;;5055633;28;1076;-64
2021/05/08 08:28:16;;;;;;;;;;;19.00;59.80;;;;;;5055516;28;1906;-64
2021/05/08 08:30:41;;;;;;;;;;;19.00;59.80;;;;;;5055706;28;1110;-64
2021/05/08 08:33:07;;;;;;;;;;;19.00;59.80;;;;;;5055456;28;1357;-63
2021/05/08 08:35:32;;;;;;;;;;;19.00;59.80;;;;;;5055312;28;1126;-64
2021/05/08 08:37:58;;;;;;;;;;;19.00;59.80;;;;;;5055593;28;1110;-66
2021/05/08 08:40:23;;;;;;;;;;;19.00;59.80;;;;;;5055400;28;1066;-64
2021/05/08 08:42:48;;;;;;;;;;;19.00;59.80;;;;;;5054073;28;1282;-64
2021/05/08 08:45:14;;;;;;;;;;;19.00;59.90;;;;;;5054986;28;1059;-65
2021/05/08 08:47:39;;;;;;;;;;;19.00;59.80;;;;;;5053813;28;1960;-65
2021/05/08 08:50:11;;;;;;;;;;;19.00;59.80;;;;;;5053928;28;1067;-65
2021/05/08 08:52:37;;;;;;;;;;;19.00;59.80;;;;;;5053782;28;1378;-64
2021/05/08 08:55:02;;;;;;;;;;;19.00;59.80;;;;;;5054946;28;1091;-65
2021/05/08 08:57:51;;;;;;;;;;;19.00;59.80;;;;;;5053474;28;1209;-64
2021/05/08 09:00:15;;;;;;;;;;;19.00;59.80;;;;;;5055317;28;1095;-64
2021/05/08 09:02:48;;;;;;;;;;;19.00;59.80;;;;;;5033623;28;1895;-66
2021/05/08 09:05:15;;;;;;;;;;;19.00;59.80;;;;;;5050947;28;1098;-66
2021/05/08 09:07:44;;;;;;;;;;;19.00;59.80;;;;;;5054702;28;1965;-65
2021/05/08 09:10:19;;;;;;;;;;;19.00;59.80;;;;;;5054739;28;1133;-64
2021/05/08 09:12:45;;;;;;;;;;;19.00;59.80;;;;;;5054628;28;1305;-64
2021/05/08 09:15:10;;;;;;;;;;;19.00;59.90;;;;;;5046152;28;1224;-65
2021/05/08 09:17:36;;;;;;;;;;;19.00;59.80;;;;;;5049352;28;1170;-64
2021/05/08 09:20:01;;;;;;;;;;;19.00;59.80;;;;;;5027166;28;1296;-64
2021/05/08 09:22:30;;;;;;;;;;;19.00;59.80;;;;;;5043167;28;1252;-65
2021/05/08 09:25:11;;;;;;;;;;;19.00;59.90;;;;;;5046564;28;1215;-66
2021/05/08 09:27:52;;;;;;;;;;;19.00;59.80;;;;;;5045779;28;1910;-66
2021/05/08 09:30:19;;;;;;;;;;;19.00;59.80;;;;;;5048135;28;1208;-66
2021/05/08 09:32:45;;;;;;;;;;;19.00;59.80;;;;;;5044672;28;1306;-65
2021/05/08 09:35:14;;;;;;;;;;;19.00;59.80;;;;;;5045832;28;1462;-65
2021/05/08 09:37:40;;;;;;;;;;;19.00;59.90;;;;;;5043742;28;1160;-65
2021/05/08 09:40:12;;;;;;;;;;;19.00;59.90;;;;;;5045701;28;1043;-65
2021/05/08 09:42:44;;;;;;;;;;;19.00;59.90;;;;;;5049699;28;1291;-66
2021/05/08 09:45:10;;;;;;;;;;;19.00;59.90;;;;;;5051176;28;1352;-65
2021/05/08 09:47:36;;;;;;;;;;;19.00;59.90;;;;;;5051510;28;1890;-65
2021/05/08 09:50:01;;;;;;;;;;;19.00;59.90;;;;;;5053361;28;1118;-65
2021/05/08 09:52:38;;;;;;;;;;;19.00;59.90;;;;;;5053689;28;1264;-65
2021/05/08 09:55:04;;;;;;;;;;;19.00;59.90;;;;;;5054436;28;1055;-66
2021/05/08 09:57:29;;;;;;;;;;;19.00;59.90;;;;;;5052408;28;1063;-66
2021/05/08 09:59:57;;;;;;;;;;;19.00;59.90;;;;;;5048718;28;1902;-66
2021/05/08 10:02:23;;;;;;;;;;;19.00;59.90;;;;;;5046218;28;1288;-65
2021/05/08 10:04:50;;;;;;;;;;;19.00;59.90;;;;;;5045392;28;1210;-65
2021/05/08 10:07:16;;;;;;;;;;;19.00;59.80;;;;;;5045250;28;1967;-65
2021/05/08 10:09:42;;;;;;;;;;;19.00;59.80;;;;;;5045384;28;1179;-65
2021/05/08 10:12:08;;;;;;;;;;;19.00;59.80;;;;;;5045357;28;1412;-65
2021/05/08 10:14:34;;;;;;;;;;;19.00;59.80;;;;;;5045949;28;1238;-65
2021/05/08 10:17:00;;;;;;;;;;;19.00;59.80;;;;;;5042664;28;1938;-65
2021/05/08 10:19:27;;;;;;;;;;;19.00;59.90;;;;;;5048307;28;1827;-67
2021/05/08 10:21:52;;;;;;;;;;;19.00;59.90;;;;;;5041626;28;1258;-66
2021/05/08 10:24:19;;;;;;;;;;;19.00;59.90;;;;;;5043173;28;1231;-65
2021/05/08 10:26:44;;;;;;;;;;;19.00;59.80;;;;;;5064496;28;1971;-65
2021/05/08 10:29:10;;;;;;;;;;;19.00;59.90;;;;;;5042206;28;1301;-66
2021/05/08 10:31:35;;;;;;;;;;;19.00;59.90;;;;;;5043907;28;1366;-66
2021/05/08 10:34:01;;;;;;;;;;;19.00;59.90;;;;;;5042740;28;1265;-65
2021/05/08 10:36:45;;;;;;;;;;;19.00;59.90;;;;;;5043272;28;1254;-66
2021/05/08 10:39:11;;;;;;;;;;;19.00;59.90;;;;;;5043640;28;1634;-66
2021/05/08 10:41:49;;;;;;;;;;;19.00;59.90;;;;;;5047100;28;1419;-66
2021/05/08 10:44:34;;;;;;;;;;;19.00;59.90;;;;;;5045575;28;1294;-65
2021/05/08 10:47:00;;;;;;;;;;;18.90;59.90;;;;;;5043204;28;1895;-65
2021/05/08 10:49:25;;;;;;;;;;;19.00;59.90;;;;;;5027543;28;1923;-66
2021/05/08 10:51:57;;;;;;;;;;;19.00;59.90;;;;;;5051802;28;1579;-65
2021/05/08 10:54:55;;;;;;;;;;;19.00;59.90;;;;;;5046542;28;1187;-65
2021/05/08 10:57:28;;;;;;;;;;;19.00;59.90;;;;;;5038544;28;1431;-65
2021/05/08 11:00:07;;;;;;;;;;;19.00;60.00;;;;;;5050662;28;1681;-65
2021/05/08 11:02:38;;;;;;;;;;;19.00;59.90;;;;;;5051574;28;1652;-65
2021/05/08 11:05:18;;;;;;;;;;;19.00;59.90;;;;;;5051767;28;1175;-65
2021/05/08 11:07:44;;;;;;;;;;;19.00;59.90;;;;;;5051364;28;1954;-65
2021/05/08 11:10:28;;;;;;;;;;;19.00;59.90;;;;;;5051755;28;1152;-66
2021/05/08 11:13:09;;;;;;;;;;;19.00;59.90;;;;;;5051525;28;1625;-64
2021/05/08 11:15:56;;;;;;;;;;;19.00;59.90;;;;;;5051695;28;1763;-64
2021/05/08 11:18:35;;;;;;;;;;;19.00;59.90;;;;;;5050394;28;1287;-64
2021/05/08 11:21:12;;;;;;;;;;;19.00;59.90;;;;;;5047319;28;1420;-64
2021/05/08 11:23:50;;;;;;;;;;;19.00;59.90;;;;;;5050569;28;1274;-64
2021/05/08 11:26:32;;;;;;;;;;;19.00;59.90;;;;;;5051616;28;1980;-64
2021/05/08 11:29:00;;;;;;;;;;;19.00;59.90;;;;;;5053997;28;1106;-64
2021/05/08 11:31:27;;;;;;;;;;;19.00;59.90;;;;;;5056013;28;1642;-64
2021/05/08 11:33:52;;;;;;;;;;;19.00;59.90;;;;;;5054498;28;1617;-64
2021/05/08 11:36:17;;;;;;;;;;;19.00;59.90;;;;;;5054323;28;1340;-65
2021/05/08 11:38:43;;;;;;;;;;;19.00;59.90;;;;;;5045833;28;2263;-64
2021/05/08 11:41:21;;;;;;;;;;;19.00;59.90;;;;;;5054855;28;1650;-65
2021/05/08 11:43:55;;;;;;;;;;;19.00;59.90;;;;;;5041911;28;1417;-64
2021/05/08 11:46:24;;;;;;;;;;;19.00;59.90;;;;;;5053173;28;1898;-64
2021/05/08 11:48:49;;;;;;;;;;;19.00;59.90;;;;;;5054259;28;1686;-64
2021/05/08 11:51:15;;;;;;;;;;;19.00;59.90;;;;;;5054372;28;1649;-64
2021/05/08 11:53:40;;;;;;;;;;;19.00;59.90;;;;;;5055288;28;1216;-64
2021/05/08 11:56:06;;;;;;;;;;;19.00;59.90;;;;;;5055392;28;1670;-64
2021/05/08 11:58:31;;;;;;;;;;;19.00;59.90;;;;;;5055483;28;1333;-64
2021/05/08 12:00:57;;;;;;;;;;;19.00;59.90;;;;;;5055505;28;1476;-64
2021/05/08 12:03:24;;;;;;;;;;;19.00;59.90;;;;;;5053945;28;1353;-64
2021/05/08 12:05:50;;;;;;;;;;;19.00;59.90;;;;;;5054890;28;1539;-64
2021/05/08 12:08:20;;;;;;;;;;;19.00;59.90;;;;;;5053756;28;1961;-63
2021/05/08 12:10:45;;;;;;;;;;;19.00;59.90;;;;;;5055163;28;1647;-64
2021/05/08 12:13:11;;;;;;;;;;;19.00;59.90;;;;;;5048961;28;1326;-64
2021/05/08 12:15:50;;;;;;;;;;;19.00;59.90;;;;;;5045886;28;1888;-64
2021/05/08 12:18:15;;;;;;;;;;;19.00;59.90;;;;;;5046985;28;1292;-64
2021/05/08 12:20:42;;;;;;;;;;;19.00;59.90;;;;;;5045732;28;1195;-64
2021/05/08 12:23:14;;;;;;;;;;;19.00;59.90;;;;;;5045699;28;1290;-64
2021/05/08 12:25:39;;;;;;;;;;;19.00;59.90;;;;;;5045418;28;1390;-64
2021/05/08 12:28:17;;;;;;;;;;;19.00;59.90;;;;;;5045905;28;1956;-64
2021/05/08 12:30:44;;;;;;;;;;;19.00;59.90;;;;;;5045739;28;1164;-64
2021/05/08 12:33:16;;;;;;;;;;;19.00;59.90;;;;;;5045958;28;1302;-64
2021/05/08 12:35:41;;;;;;;;;;;19.00;59.90;;;;;;5049174;28;1160;-64
2021/05/08 12:38:11;;;;;;;;;;;19.00;59.90;;;;;;5053133;28;1058;-65
2021/05/08 12:40:36;;;;;;;;;;;19.00;59.90;;;;;;5054237;28;1028;-65
2021/05/08 12:43:01;;;;;;;;;;;19.00;59.90;;;;;;5054249;28;1229;-64
2021/05/08 12:45:27;;;;;;;;;;;19.00;59.90;;;;;;5054275;28;1130;-64
2021/05/08 12:47:52;;;;;;;;;;;19.00;59.90;;;;;;5053853;28;1906;-64
2021/05/08 12:50:27;;;;;;;;;;;19.00;59.90;;;;;;5054531;28;1024;-64
2021/05/08 12:52:59;;;;;;;;;;;19.00;60.00;;;;;;5054118;28;1390;-64
2021/05/08 12:55:26;;;;;;;;;;;19.00;59.90;;;;;;5052932;28;990;-64
2021/05/08 12:57:52;;;;;;;;;;;19.00;60.00;;;;;;5054066;28;1106;-64
2021/05/08 13:00:18;;;;;;;;;;;19.00;60.00;;;;;;5054041;28;1091;-65
2021/05/08 13:02:45;;;;;;;;;;;19.00;59.90;;;;;;5053901;28;1257;-64
2021/05/08 13:05:11;;;;;;;;;;;19.00;60.00;;;;;;5052620;28;1111;-63
2021/05/08 13:07:38;;;;;;;;;;;19.00;60.00;;;;;;5053016;28;1979;-64
2021/05/08 13:10:20;;;;;;;;;;;19.00;60.00;;;;;;5053966;28;1036;-64
2021/05/08 13:12:50;;;;;;;;;;;19.00;60.00;;;;;;5054024;28;1318;-63
2021/05/08 13:15:17;;;;;;;;;;;19.00;60.00;;;;;;5052315;28;1224;-64
2021/05/08 13:17:43;;;;;;;;;;;19.00;60.00;;;;;;5053759;28;1095;-64
2021/05/08 13:20:08;;;;;;;;;;;19.00;59.90;;;;;;5048963;28;1175;-63
2021/05/08 13:22:36;;;;;;;;;;;19.00;59.90;;;;;;5053840;28;1287;-63
2021/05/08 13:25:02;;;;;;;;;;;19.00;59.90;;;;;;5053669;28;1114;-64
2021/05/08 13:27:27;;;;;;;;;;;19.00;59.90;;;;;;5053188;28;1914;-64
2021/05/08 13:29:53;;;;;;;;;;;19.00;59.90;;;;;;5053609;28;1023;-64
2021/05/08 13:32:18;;;;;;;;;;;19.00;60.00;;;;;;5053365;28;1252;-64
2021/05/08 13:34:44;;;;;;;;;;;19.00;59.90;;;;;;5052130;28;1166;-64
2021/05/08 13:37:09;;;;;;;;;;;19.00;59.90;;;;;;5053214;28;1126;-64
2021/05/08 13:39:34;;;;;;;;;;;19.00;60.00;;;;;;5053361;28;1012;-63
2021/05/08 13:42:00;;;;;;;;;;;19.00;60.00;;;;;;5053122;28;1272;-63
2021/05/08 13:44:25;;;;;;;;;;;19.00;60.00;;;;;;5048119;28;1098;-63
2021/05/08 13:46:51;;;;;;;;;;;19.00;60.00;;;;;;5051598;28;1906;-64
2021/05/08 13:49:16;;;;;;;;;;;19.00;59.90;;;;;;5053108;28;1051;-64
2021/05/08 13:51:42;;;;;;;;;;;19.00;59.90;;;;;;5052492;28;1344;-63
2021/05/08 13:54:07;;;;;;;;;;;19.00;59.90;;;;;;5052971;28;1079;-63
2021/05/08 13:56:33;;;;;;;;;;;19.00;59.90;;;;;;5052669;28;1000;-64
2021/05/08 13:58:58;;;;;;;;;;;19.00;59.90;;;;;;5052890;28;1095;-63
2021/05/08 14:01:24;;;;;;;;;;;19.00;59.90;;;;;;5052990;28;1071;-63
2021/05/08 14:03:50;;;;;;;;;;;19.00;59.90;;;;;;5052845;28;1217;-64
2021/05/08 14:06:15;;;;;;;;;;;19.00;59.90;;;;;;5052528;28;1910;-64
2021/05/08 14:08:43;;;;;;;;;;;19.00;59.90;;;;;;5052819;28;1142;-64
2021/05/08 14:11:08;;;;;;;;;;;19.00;59.90;;;;;;5052713;28;1075;-64
2021/05/08 14:13:34;;;;;;;;;;;19.00;59.90;;;;;;5052765;28;1208;-64
2021/05/08 14:15:59;;;;;;;;;;;19.00;60.00;;;;;;5052488;28;1126;-64
2021/05/08 14:18:26;;;;;;;;;;;19.00;60.00;;;;;;5052579;28;1087;-64
2021/05/08 14:20:52;;;;;;;;;;;19.00;60.00;;;;;;5047995;28;1193;-64
2021/05/08 14:23:17;;;;;;;;;;;19.00;59.90;;;;;;5051070;28;1326;-63
2021/05/08 14:25:43;;;;;;;;;;;19.00;60.00;;;;;;5052133;28;1063;-64
2021/05/08 14:28:08;;;;;;;;;;;19.00;59.90;;;;;;5052298;28;2336;-63